createdAt,value
2018-11-13T00:00:17.439Z,19.10
2018-11-13T00:02:46.196Z,13.17
2018-11-13T00:05:14.683Z,13.83
2018-11-13T00:07:43.772Z,11.95
2018-11-13T00:10:12.994Z,16.33
2018-11-13T00:12:42.082Z,12.60
2018-11-13T00:15:11.103Z,11.43
2018-11-13T00:17:39.591Z,17.60
2018-11-13T00:20:11.323Z,13.43
2018-11-13T00:22:40.003Z,15.80
2018-11-13T00:25:10.392Z,13.73
2018-11-13T00:27:39.170Z,13.80
2018-11-13T00:30:10.372Z,15.37
2018-11-13T00:32:39.123Z,13.23
2018-11-13T00:35:07.638Z,14.13
2018-11-13T00:37:36.476Z,12.67
2018-11-13T00:40:06.191Z,10.50
2018-11-13T00:42:34.739Z,12.67
2018-11-13T00:45:03.307Z,14.33
2018-11-13T00:47:31.826Z,12.10
2018-11-13T00:50:00.720Z,13.23
2018-11-13T00:52:29.175Z,11.73
2018-11-13T00:54:58.063Z,14.77
2018-11-13T00:57:26.622Z,13.87
2018-11-13T00:59:55.227Z,16.30
2018-11-13T01:02:23.771Z,15.77
2018-11-13T01:04:52.298Z,8.67
2018-11-13T01:07:21.083Z,14.50
2018-11-13T01:09:49.563Z,12.17
2018-11-13T01:12:18.635Z,9.83
2018-11-13T01:14:47.169Z,11.67
2018-11-13T01:17:15.846Z,9.70
2018-11-13T01:19:44.378Z,15.23
2018-11-13T01:22:13.060Z,10.30
2018-11-13T01:24:42.132Z,12.40
2018-11-13T01:27:10.690Z,17.33
2018-11-13T01:29:39.787Z,19.37
2018-11-13T01:32:17.210Z,15.17
2018-11-13T01:34:45.796Z,15.43
2018-11-13T01:37:14.786Z,13.57
2018-11-13T01:39:43.348Z,11.97
2018-11-13T01:42:12.198Z,13.50
2018-11-13T01:44:40.934Z,18.90
2018-11-13T01:47:09.567Z,12.67
2018-11-13T01:49:38.818Z,16.13
2018-11-13T01:52:07.340Z,11.57
2018-11-13T01:54:36.308Z,14.87
2018-11-13T01:57:05.428Z,14.63
2018-11-13T01:59:34.673Z,14.43
2018-11-13T02:02:03.364Z,14.57
2018-11-13T02:04:32.663Z,17.23
2018-11-13T02:07:01.345Z,15.80
2018-11-13T02:09:30.218Z,13.23
2018-11-13T02:11:58.967Z,14.20
2018-11-13T02:14:27.674Z,15.43
2018-11-13T02:16:56.267Z,14.90
2018-11-13T02:19:24.871Z,13.00
2018-11-13T02:21:53.642Z,16.77
2018-11-13T02:24:22.199Z,11.00
2018-11-13T02:26:51.008Z,16.63
2018-11-13T02:29:19.627Z,11.47
2018-11-13T02:31:48.366Z,10.83
2018-11-13T02:34:17.147Z,15.40
2018-11-13T02:36:45.734Z,11.57
2018-11-13T02:39:14.356Z,12.87
2018-11-13T02:41:42.943Z,13.13
2018-11-13T02:44:11.715Z,9.00
2018-11-13T02:46:40.623Z,12.73
2018-11-13T02:49:09.619Z,19.73
2018-11-13T02:51:38.371Z,14.33
2018-11-13T02:54:07.111Z,11.50
2018-11-13T02:56:35.927Z,11.03
2018-11-13T02:59:04.676Z,19.57
2018-11-13T03:01:33.294Z,16.40
2018-11-13T03:04:01.863Z,21.37
2018-11-13T03:06:30.667Z,25.13
2018-11-13T03:08:59.227Z,20.37
2018-11-13T03:11:28.066Z,22.57
2018-11-13T03:13:56.701Z,15.00
2018-11-13T03:16:25.307Z,10.93
2018-11-13T03:18:53.954Z,13.17
2018-11-13T03:21:22.525Z,16.10
2018-11-13T03:23:51.419Z,16.87
2018-11-13T03:26:19.993Z,11.97
2018-11-13T03:28:48.633Z,13.10
2018-11-13T03:31:17.299Z,11.13
2018-11-13T03:33:45.883Z,7.93
2018-11-13T03:36:14.447Z,12.27
2018-11-13T03:38:43.004Z,8.10
2018-11-13T03:41:11.962Z,8.20
2018-11-13T03:43:40.520Z,9.63
2018-11-13T03:46:09.555Z,10.43
2018-11-13T03:48:38.187Z,10.73
2018-11-13T03:51:06.966Z,8.00
2018-11-13T03:53:35.691Z,7.03
2018-11-13T03:56:04.358Z,15.13
2018-11-13T03:58:32.900Z,8.27
2018-11-13T04:01:01.463Z,10.97
2018-11-13T04:03:30.323Z,11.07
2018-11-13T04:05:58.957Z,10.03
2018-11-13T04:08:27.674Z,12.50
2018-11-13T04:10:56.320Z,10.93
2018-11-13T04:13:24.954Z,11.07
2018-11-13T04:15:53.676Z,8.00
2018-11-13T04:18:22.259Z,10.43
2018-11-13T04:20:51.015Z,12.97
2018-11-13T04:23:19.580Z,11.20
2018-11-13T04:25:48.748Z,8.10
2018-11-13T04:28:17.434Z,10.90
2018-11-13T04:30:46.128Z,10.47
2018-11-13T04:33:14.708Z,12.40
2018-11-13T04:35:43.308Z,10.83
2018-11-13T04:38:11.875Z,9.67
2018-11-13T04:40:40.431Z,8.87
2018-11-13T04:43:09.201Z,10.10
2018-11-13T04:45:37.826Z,10.97
2018-11-13T04:48:06.998Z,9.40
2018-11-13T04:50:35.626Z,12.47
2018-11-13T04:53:04.409Z,14.17
2018-11-13T04:55:33.482Z,14.10
2018-11-13T04:58:02.106Z,11.10
2018-11-13T05:00:30.791Z,19.70
2018-11-13T05:02:59.462Z,11.43
2018-11-13T05:05:28.331Z,11.50
2018-11-13T05:07:56.891Z,11.90
2018-11-13T05:10:26.260Z,11.87
2018-11-13T05:12:54.823Z,10.03
2018-11-13T05:15:23.524Z,13.73
2018-11-13T05:17:52.314Z,10.20
2018-11-13T05:20:20.894Z,8.03
2018-11-13T05:22:49.470Z,17.37
2018-11-13T05:25:20.414Z,12.93
2018-11-13T05:27:49.170Z,13.10
2018-11-13T05:30:20.131Z,18.33
2018-11-13T05:32:48.799Z,11.43
2018-11-13T05:35:18.635Z,10.43
2018-11-13T05:37:47.584Z,13.10
2018-11-13T05:40:18.038Z,13.07
2018-11-13T05:42:46.707Z,13.30
2018-11-13T05:45:17.371Z,12.47
2018-11-13T05:47:46.894Z,18.77
2018-11-13T05:50:16.595Z,16.53
2018-11-13T05:52:48.406Z,12.27
2018-11-13T05:55:17.831Z,14.50
2018-11-13T05:57:46.643Z,11.87
2018-11-13T06:00:21.559Z,14.17
2018-11-13T06:02:51.885Z,18.30
2018-11-13T06:05:20.580Z,18.37
2018-11-13T06:07:50.739Z,17.10
2018-11-13T06:10:19.794Z,16.83
2018-11-13T06:12:49.143Z,14.43
2018-11-13T06:15:19.559Z,15.23
2018-11-13T06:17:49.530Z,14.33
2018-11-13T06:20:19.436Z,13.60
2018-11-13T06:22:48.493Z,16.07
2018-11-13T06:25:17.900Z,16.83
2018-11-13T06:27:47.623Z,16.93
2018-11-13T06:30:19.111Z,20.37
2018-11-13T06:32:48.478Z,14.93
2018-11-13T06:35:17.349Z,18.40
2018-11-13T06:37:46.139Z,16.37
2018-11-13T06:40:14.840Z,13.83
2018-11-13T06:42:43.636Z,15.17
2018-11-13T06:45:14.558Z,15.33
2018-11-13T06:47:44.298Z,12.87
2018-11-13T06:50:13.274Z,14.60
2018-11-13T06:52:42.369Z,12.20
2018-11-13T06:55:16.138Z,12.73
2018-11-13T06:57:44.744Z,10.97
2018-11-13T07:00:13.358Z,10.67
2018-11-13T07:02:42.068Z,13.17
2018-11-13T07:05:12.914Z,12.77
2018-11-13T07:07:42.034Z,9.30
2018-11-13T07:10:12.590Z,11.60
2018-11-13T07:12:42.579Z,11.40
2018-11-13T07:15:13.147Z,12.20
2018-11-13T07:17:44.346Z,16.60
2018-11-13T07:20:13.408Z,11.33
2018-11-13T07:22:42.362Z,15.53
2018-11-13T07:25:11.565Z,17.20
2018-11-13T07:27:40.799Z,12.27
2018-11-13T07:30:11.380Z,14.17
2018-11-13T07:32:40.799Z,12.53
2018-11-13T07:35:10.960Z,9.40
2018-11-13T07:37:41.428Z,19.82
2018-11-13T07:40:10.474Z,20.37
2018-11-13T07:42:39.127Z,12.93
2018-11-13T07:45:10.356Z,16.83
2018-11-13T07:47:39.248Z,13.43
2018-11-13T07:50:09.548Z,13.80
2018-11-13T07:52:38.355Z,12.57
2018-11-13T07:55:07.830Z,14.77
2018-11-13T07:57:36.984Z,10.53
2018-11-13T08:00:13.535Z,11.63
2018-11-13T08:02:43.316Z,17.27
2018-11-13T08:05:12.014Z,14.20
2018-11-13T08:07:40.995Z,13.17
2018-11-13T08:10:10.999Z,15.03
2018-11-13T08:12:39.993Z,12.53
2018-11-13T08:15:10.765Z,13.40
2018-11-13T08:17:39.963Z,13.40
2018-11-13T08:20:10.405Z,15.00
2018-11-13T08:22:39.090Z,10.13
2018-11-13T08:25:09.123Z,15.20
2018-11-13T08:27:39.133Z,14.43
2018-11-13T08:30:10.267Z,17.47
2018-11-13T08:32:38.884Z,14.27
2018-11-13T08:35:08.079Z,13.27
2018-11-13T08:37:36.755Z,13.20
2018-11-13T08:40:07.142Z,10.20
2018-11-13T08:42:35.778Z,16.47
2018-11-13T08:45:04.491Z,12.53
2018-11-13T08:47:33.531Z,13.73
2018-11-13T08:50:02.174Z,16.10
2018-11-13T08:52:31.135Z,8.73
2018-11-13T08:54:59.751Z,12.97
2018-11-13T08:57:28.439Z,10.90
2018-11-13T08:59:57.005Z,16.73
2018-11-13T09:02:25.626Z,12.23
2018-11-13T09:04:54.402Z,13.23
2018-11-13T09:07:22.992Z,14.47
2018-11-13T09:09:52.039Z,11.57
2018-11-13T09:12:20.664Z,11.30
2018-11-13T09:14:49.551Z,13.37
2018-11-13T09:17:18.135Z,7.03
2018-11-13T09:19:46.970Z,14.10
2018-11-13T09:22:15.490Z,7.67
2018-11-13T09:24:44.111Z,6.90
2018-11-13T09:27:13.199Z,12.70
2018-11-13T09:29:41.800Z,7.30
2018-11-13T09:32:10.835Z,13.07
2018-11-13T09:34:39.438Z,7.13
2018-11-13T09:37:08.501Z,8.50
2018-11-13T09:39:37.114Z,9.53
2018-11-13T09:42:06.378Z,9.50
2018-11-13T09:44:35.033Z,13.40
2018-11-13T09:47:03.635Z,9.30
2018-11-13T09:49:32.198Z,7.33
2018-11-13T09:52:00.791Z,9.23
2018-11-13T09:54:29.726Z,9.20
2018-11-13T09:56:58.295Z,7.43
2018-11-13T09:59:27.199Z,9.30
2018-11-13T10:01:56.254Z,10.97
2018-11-13T10:04:25.126Z,8.03
2018-11-13T10:06:53.276Z,12.45
2018-11-13T10:09:21.975Z,8.67
2018-11-13T10:11:50.559Z,11.53
2018-11-13T10:14:19.211Z,7.67
2018-11-13T10:16:48.208Z,13.13
2018-11-13T10:19:16.835Z,12.73
2018-11-13T10:21:45.962Z,17.43
2018-11-13T10:24:14.567Z,8.47
2018-11-13T10:26:43.420Z,11.80
2018-11-13T10:29:11.979Z,10.70
2018-11-13T10:31:40.667Z,14.50
2018-11-13T10:34:09.296Z,12.33
2018-11-13T10:36:37.886Z,11.83
2018-11-13T10:39:09.258Z,7.10
2018-11-13T10:41:37.820Z,8.77
2018-11-13T10:44:06.803Z,12.43
2018-11-13T10:46:35.385Z,9.77
2018-11-13T10:49:04.301Z,13.37
2018-11-13T10:51:32.875Z,16.63
2018-11-13T10:54:01.743Z,12.90
2018-11-13T10:56:30.346Z,8.10
2018-11-13T10:58:59.075Z,10.97
2018-11-13T11:01:33.024Z,8.30
2018-11-13T11:04:07.237Z,8.57
2018-11-13T11:06:36.181Z,9.43
2018-11-13T11:09:06.798Z,14.40
2018-11-13T11:11:35.944Z,10.57
2018-11-13T11:14:04.811Z,13.57
2018-11-13T11:16:33.758Z,8.10
2018-11-13T11:19:02.496Z,9.97
2018-11-13T11:21:31.299Z,13.17
2018-11-13T11:23:59.883Z,13.27
2018-11-13T11:26:28.533Z,16.63
2018-11-13T11:28:57.303Z,14.43
2018-11-13T11:31:25.875Z,17.23
2018-11-13T11:33:54.845Z,14.60
2018-11-13T11:36:23.443Z,14.57
2018-11-13T11:38:52.465Z,17.30
2018-11-13T11:41:20.931Z,23.23
2018-11-13T11:43:49.640Z,23.90
2018-11-13T11:46:18.269Z,16.93
2018-11-13T11:48:46.822Z,17.13
2018-11-13T11:51:15.675Z,19.63
2018-11-13T11:53:44.400Z,20.97
2018-11-13T11:56:13.404Z,21.73
2018-11-13T11:58:42.003Z,19.77
2018-11-13T12:01:10.775Z,20.60
2018-11-13T12:03:39.379Z,21.70
2018-11-13T12:06:08.005Z,16.97
2018-11-13T12:08:36.744Z,18.83
2018-11-13T12:11:05.415Z,15.53
2018-11-13T12:13:34.216Z,21.73
2018-11-13T12:16:02.814Z,17.27
2018-11-13T12:18:31.794Z,14.47
2018-11-13T12:21:00.401Z,20.30
2018-11-13T12:23:29.198Z,14.70
2018-11-13T12:25:58.064Z,19.70
2018-11-13T12:28:26.570Z,16.93
2018-11-13T12:30:55.320Z,13.53
2018-11-13T12:33:23.903Z,16.60
2018-11-13T12:35:52.898Z,19.50
2018-11-13T12:38:21.495Z,13.10
2018-11-13T12:40:50.824Z,17.90
2018-11-13T12:43:19.515Z,15.97
2018-11-13T12:45:48.253Z,16.60
2018-11-13T12:48:16.911Z,15.57
2018-11-13T12:50:50.822Z,16.30
2018-11-13T12:53:19.383Z,18.00
2018-11-13T12:55:48.603Z,16.27
2018-11-13T12:58:17.208Z,15.20
2018-11-13T13:00:45.954Z,22.87
2018-11-13T13:03:14.511Z,13.07
2018-11-13T13:05:43.118Z,14.43
2018-11-13T13:08:11.808Z,15.30
2018-11-13T13:10:40.371Z,14.50
2018-11-13T13:13:09.435Z,18.93
2018-11-13T13:15:38.011Z,14.57
2018-11-13T13:18:07.042Z,18.17
2018-11-13T13:20:35.621Z,18.10
2018-11-13T13:23:04.510Z,17.27
2018-11-13T13:25:33.172Z,18.37
2018-11-13T13:28:01.820Z,15.20
2018-11-13T13:30:30.487Z,17.10
2018-11-13T13:32:59.055Z,18.10
2018-11-13T13:35:49.123Z,16.60
2018-11-13T13:38:18.278Z,20.13
2018-11-13T13:40:48.307Z,21.67
2018-11-13T13:43:17.996Z,16.13
2018-11-13T13:45:47.457Z,14.50
2018-11-13T13:48:16.639Z,23.63
2018-11-13T13:50:45.239Z,19.73
2018-11-13T13:53:15.016Z,21.03
2018-11-13T13:55:43.931Z,19.67
2018-11-13T13:58:13.445Z,20.13
2018-11-13T14:00:42.168Z,20.93
2018-11-13T14:03:12.152Z,21.83
2018-11-13T14:05:41.378Z,20.33
2018-11-13T14:08:11.092Z,24.77
2018-11-13T14:10:39.928Z,21.03
2018-11-13T14:13:08.949Z,22.23
2018-11-13T14:15:37.530Z,28.03
2018-11-13T14:18:06.532Z,26.02
2018-11-13T14:20:35.258Z,19.90
2018-11-13T14:23:03.960Z,24.87
2018-11-13T14:25:32.833Z,16.73
2018-11-13T14:28:01.476Z,24.50
2018-11-13T14:30:32.338Z,25.43
2018-11-13T14:33:03.354Z,22.17
2018-11-13T14:35:31.976Z,21.40
2018-11-13T14:38:01.055Z,13.30
2018-11-13T14:40:33.362Z,14.63
2018-11-13T14:43:02.744Z,3.50
2018-11-13T14:45:31.679Z,2.13
2018-11-13T14:48:00.715Z,2.33
2018-11-13T14:50:30.737Z,1.50
2018-11-13T14:52:59.692Z,0.57
2018-11-13T14:55:31.021Z,0.60
2018-11-13T14:58:00.771Z,2.67
2018-11-13T15:00:30.526Z,3.37
2018-11-13T15:03:00.515Z,2.57
2018-11-13T15:05:29.920Z,0.67
2018-11-13T15:08:01.176Z,2.03
2018-11-13T15:10:37.638Z,2.30
2018-11-13T15:13:06.891Z,2.33
2018-11-13T15:15:35.463Z,1.03
2018-11-13T15:18:04.095Z,7.90
2018-11-13T15:20:33.089Z,6.07
2018-11-13T15:23:01.880Z,3.60
2018-11-13T15:25:30.779Z,3.37
2018-11-13T15:27:59.350Z,4.47
2018-11-13T15:30:29.883Z,4.17
2018-11-13T15:33:00.717Z,6.10
2018-11-13T15:35:29.524Z,7.10
2018-11-13T15:37:58.099Z,2.40
2018-11-13T15:40:28.222Z,3.10
2018-11-13T15:42:56.929Z,3.13
2018-11-13T15:45:25.909Z,1.43
2018-11-13T15:47:55.508Z,0.70
2018-11-13T15:50:25.574Z,0.40
2018-11-13T15:52:54.293Z,0.40
2018-11-13T15:55:23.205Z,0.33
2018-11-13T15:57:52.109Z,0.57
2018-11-13T16:00:28.250Z,0.30
2018-11-13T16:02:58.007Z,3.67
2018-11-13T16:05:31.534Z,2.43
2018-11-13T16:08:01.203Z,0.67
2018-11-13T16:10:29.782Z,1.27
2018-11-13T16:12:59.610Z,1.60
2018-11-13T16:15:28.870Z,0.90
2018-11-13T16:17:59.107Z,0.50
2018-11-13T16:20:27.719Z,0.30
2018-11-13T16:22:56.643Z,0.73
2018-11-13T16:25:25.762Z,0.53
2018-11-13T16:27:54.686Z,0.53
2018-11-13T16:30:24.773Z,3.13
2018-11-13T16:32:54.291Z,3.00
2018-11-13T16:35:24.045Z,2.37
2018-11-13T16:37:53.802Z,0.60
2018-11-13T16:40:23.595Z,0.20
2018-11-13T16:42:52.578Z,0.33
2018-11-13T16:45:22.230Z,1.60
2018-11-13T16:47:51.341Z,0.20
2018-11-13T16:50:28.065Z,3.47
2018-11-13T16:52:57.178Z,0.40
2018-11-13T16:55:31.114Z,0.30
2018-11-13T16:58:00.995Z,0.73
2018-11-13T17:00:29.656Z,0.57
2018-11-13T17:02:58.688Z,1.63
2018-11-13T17:05:28.237Z,1.33
2018-11-13T17:07:56.753Z,1.27
2018-11-13T17:10:26.570Z,1.17
2018-11-13T17:12:55.604Z,0.50
2018-11-13T17:15:25.559Z,2.60
2018-11-13T17:17:55.105Z,1.13
2018-11-13T17:20:23.726Z,2.10
2018-11-13T17:22:52.786Z,0.77
2018-11-13T17:25:24.207Z,0.87
2018-11-13T17:27:53.769Z,2.07
2018-11-13T17:30:25.611Z,2.50
2018-11-13T17:32:55.183Z,4.53
2018-11-13T17:35:24.831Z,1.40
2018-11-13T17:37:54.401Z,1.57
2018-11-13T17:40:24.188Z,2.20
2018-11-13T17:42:54.645Z,2.90
2018-11-13T17:45:25.724Z,1.60
2018-11-13T17:47:54.339Z,2.10
2018-11-13T17:50:28.891Z,2.30
2018-11-13T17:52:57.572Z,2.87
2018-11-13T17:55:27.592Z,2.47
2018-11-13T17:57:57.623Z,3.67
2018-11-13T18:00:28.651Z,4.60
2018-11-13T18:02:57.300Z,3.47
2018-11-13T18:05:26.822Z,4.43
2018-11-13T18:07:56.199Z,9.97
2018-11-13T18:10:25.618Z,2.77
2018-11-13T18:12:54.387Z,8.93
2018-11-13T18:15:28.700Z,11.30
2018-11-13T18:17:57.963Z,6.77
2018-11-13T18:20:29.072Z,8.37
2018-11-13T18:22:58.237Z,4.70
2018-11-13T18:25:27.064Z,1.47
2018-11-13T18:27:57.095Z,8.63
2018-11-13T18:30:27.039Z,7.00
2018-11-13T18:32:56.603Z,3.97
2018-11-13T18:35:26.406Z,4.77
2018-11-13T18:37:56.221Z,5.70
2018-11-13T18:40:25.409Z,5.90
2018-11-13T18:42:55.187Z,4.80
2018-11-13T18:45:26.400Z,4.63
2018-11-13T18:47:55.143Z,3.87
2018-11-13T18:50:27.071Z,7.13
2018-11-13T18:52:55.688Z,7.20
2018-11-13T18:55:24.459Z,10.07
2018-11-13T18:57:53.175Z,8.60
2018-11-13T19:00:26.310Z,7.90
2018-11-13T19:02:54.914Z,6.63
2018-11-13T19:05:24.448Z,4.00
2018-11-13T19:07:53.222Z,9.30
2018-11-13T19:10:28.433Z,8.57
2018-11-13T19:12:57.917Z,5.40
2018-11-13T19:15:26.783Z,8.33
2018-11-13T19:17:55.531Z,5.73
2018-11-13T19:20:25.751Z,6.43
2018-11-13T19:22:54.314Z,9.53
2018-11-13T19:25:26.640Z,3.67
2018-11-13T19:27:56.290Z,3.43
2018-11-13T19:30:24.940Z,8.63
2018-11-13T19:32:53.655Z,6.13
2018-11-13T19:35:23.269Z,6.10
2018-11-13T19:37:51.915Z,2.97
2018-11-13T19:40:21.926Z,10.03
2018-11-13T19:42:51.283Z,7.47
2018-11-13T19:45:20.568Z,7.73
2018-11-13T19:47:49.127Z,5.77
2018-11-13T19:50:23.783Z,7.57
2018-11-13T19:52:52.614Z,4.70
2018-11-13T19:55:21.811Z,3.63
2018-11-13T19:57:50.871Z,9.33
2018-11-13T20:00:30.883Z,4.53
2018-11-13T20:03:00.904Z,6.13
2018-11-13T20:05:30.255Z,6.57
2018-11-13T20:07:58.983Z,4.17
2018-11-13T20:10:29.156Z,10.90
2018-11-13T20:12:59.152Z,8.83
2018-11-13T20:15:28.663Z,6.40
2018-11-13T20:17:57.323Z,6.47
2018-11-13T20:20:27.390Z,7.27
2018-11-13T20:22:56.532Z,11.60
2018-11-13T20:25:26.618Z,13.07
2018-11-13T20:27:55.297Z,7.47
2018-11-13T20:30:31.536Z,9.37
2018-11-13T20:33:01.483Z,5.37
2018-11-13T20:35:30.202Z,12.97
2018-11-13T20:37:59.679Z,12.30
2018-11-13T20:40:30.622Z,10.77
2018-11-13T20:43:00.626Z,7.00
2018-11-13T20:45:29.577Z,4.93
2018-11-13T20:47:58.508Z,9.10
2018-11-13T20:50:30.915Z,6.87
2018-11-13T20:52:59.515Z,5.73
2018-11-13T20:55:29.285Z,7.87
2018-11-13T20:57:58.170Z,13.00
2018-11-13T21:00:31.140Z,10.83
2018-11-13T21:02:59.898Z,8.97
2018-11-13T21:05:28.899Z,8.13
2018-11-13T21:07:57.651Z,8.33
2018-11-13T21:10:33.812Z,9.80
2018-11-13T21:13:03.476Z,6.80
2018-11-13T21:15:32.107Z,3.43
2018-11-13T21:18:00.987Z,8.30
2018-11-13T21:20:29.746Z,6.23
2018-11-13T21:22:58.599Z,8.97
2018-11-13T21:25:27.870Z,5.63
2018-11-13T21:27:59.143Z,9.43
2018-11-13T21:30:27.932Z,11.50
2018-11-13T21:32:56.969Z,5.67
2018-11-13T21:35:25.671Z,7.70
2018-11-13T21:37:55.680Z,12.50
2018-11-13T21:40:25.587Z,5.37
2018-11-13T21:42:55.040Z,7.93
2018-11-13T21:45:24.574Z,7.20
2018-11-13T21:47:53.524Z,5.53
2018-11-13T21:50:23.619Z,7.87
2018-11-13T21:52:52.279Z,4.83
2018-11-13T21:55:21.952Z,7.93
2018-11-13T21:57:50.708Z,6.40
2018-11-13T22:00:25.076Z,5.33
2018-11-13T22:02:56.134Z,3.70
2018-11-13T22:05:25.846Z,6.93
2018-11-13T22:07:54.518Z,6.60
2018-11-13T22:10:23.187Z,11.10
2018-11-13T22:12:52.171Z,6.23
2018-11-13T22:15:22.233Z,7.53
2018-11-13T22:17:51.251Z,8.27
2018-11-13T22:20:20.612Z,8.20
2018-11-13T22:22:50.799Z,6.90
2018-11-13T22:25:21.439Z,4.80
2018-11-13T22:27:51.196Z,3.33
2018-11-13T22:30:21.100Z,7.00
2018-11-13T22:32:49.831Z,5.83
2018-11-13T22:35:19.091Z,7.97
2018-11-13T22:37:48.125Z,8.27
2018-11-13T22:40:18.031Z,5.13
2018-11-13T22:42:47.175Z,5.63
2018-11-13T22:45:17.939Z,6.07
2018-11-13T22:47:46.586Z,5.27
2018-11-13T22:50:25.777Z,10.03
2018-11-13T22:52:55.258Z,10.10
2018-11-13T22:55:23.905Z,9.87
2018-11-13T22:57:54.471Z,6.57
2018-11-13T23:00:26.653Z,4.10
2018-11-13T23:02:55.597Z,6.60
2018-11-13T23:05:24.175Z,6.60
2018-11-13T23:07:53.107Z,6.17
2018-11-13T23:10:21.650Z,5.07
2018-11-13T23:12:50.719Z,10.73
2018-11-13T23:15:20.728Z,11.87
2018-11-13T23:17:49.779Z,4.53
2018-11-13T23:20:19.683Z,13.73
2018-11-13T23:22:48.739Z,10.47
2018-11-13T23:25:19.128Z,9.33
2018-11-13T23:27:48.906Z,7.70
2018-11-13T23:30:26.435Z,2.90
2018-11-13T23:32:55.807Z,7.00
2018-11-13T23:35:24.989Z,7.70
2018-11-13T23:37:54.944Z,4.73
2018-11-13T23:40:25.227Z,4.80
2018-11-13T23:42:54.368Z,6.93
2018-11-13T23:45:24.591Z,10.87
2018-11-13T23:47:53.479Z,8.13
2018-11-13T23:50:22.425Z,10.93
2018-11-13T23:52:51.790Z,7.13
2018-11-13T23:55:21.066Z,4.70
2018-11-13T23:57:49.739Z,9.40
